createdAt,value
2019-03-28T00:00:54.590Z,7.90
2019-03-28T00:02:35.483Z,7.90
2019-03-28T00:04:12.727Z,8.00
2019-03-28T00:05:48.480Z,8.00
2019-03-28T00:07:24.429Z,8.00
2019-03-28T00:09:00.038Z,8.00
2019-03-28T00:10:35.671Z,8.00
2019-03-28T00:12:12.231Z,8.00
2019-03-28T00:13:47.992Z,8.00
2019-03-28T00:15:24.023Z,8.10
2019-03-28T00:16:59.856Z,8.10
2019-03-28T00:18:35.501Z,8.10
2019-03-28T00:20:11.886Z,8.10
2019-03-28T00:21:47.806Z,8.10
2019-03-28T00:23:32.161Z,8.10
2019-03-28T00:25:10.618Z,8.10
2019-03-28T00:26:46.605Z,8.10
2019-03-28T00:28:22.520Z,8.00
2019-03-28T00:37:54.153Z,8.10
2019-03-28T00:39:30.035Z,8.00
2019-03-28T00:41:05.758Z,8.10
2019-03-28T00:42:41.406Z,8.10
2019-03-28T00:44:17.343Z,8.10
2019-03-28T00:45:53.048Z,8.10
2019-03-28T00:47:28.938Z,8.10
2019-03-28T00:49:04.973Z,8.10
2019-03-28T00:50:40.608Z,8.00
2019-03-28T00:52:16.363Z,8.00
2019-03-28T00:53:51.924Z,8.10
2019-03-28T00:55:27.819Z,8.10
2019-03-28T00:57:03.771Z,8.10
2019-03-28T00:58:39.721Z,8.10
2019-03-28T01:00:16.466Z,8.10
2019-03-28T01:01:52.196Z,8.00
2019-03-28T01:03:28.123Z,8.10
2019-03-28T01:05:03.717Z,8.10
2019-03-28T01:06:39.421Z,8.10
2019-03-28T01:08:15.011Z,8.00
2019-03-28T01:09:51.068Z,8.00
2019-03-28T01:11:26.673Z,8.00
2019-03-28T01:13:02.310Z,8.00
2019-03-28T01:14:38.613Z,8.00
2019-03-28T01:16:14.393Z,8.00
2019-03-28T01:17:50.821Z,8.00
2019-03-28T01:19:26.546Z,8.00
2019-03-28T01:21:02.441Z,8.10
2019-03-28T01:22:38.562Z,8.00
2019-03-28T01:24:14.183Z,8.00
2019-03-28T01:25:49.804Z,8.00
2019-03-28T01:27:25.490Z,8.00
2019-03-28T01:29:01.413Z,8.00
2019-03-28T01:30:37.281Z,8.00
2019-03-28T01:32:13.220Z,8.00
2019-03-28T01:33:48.857Z,8.00
2019-03-28T01:35:24.779Z,7.90
2019-03-28T01:37:00.675Z,7.90
2019-03-28T01:38:36.299Z,7.80
2019-03-28T01:40:11.907Z,7.80
2019-03-28T01:41:47.789Z,7.80
2019-03-28T01:43:23.721Z,7.70
2019-03-28T01:44:59.563Z,7.70
2019-03-28T01:46:35.588Z,7.70
2019-03-28T01:48:11.226Z,7.70
2019-03-28T01:49:46.817Z,7.70
2019-03-28T01:51:22.486Z,7.60
2019-03-28T01:52:58.082Z,7.60
2019-03-28T01:54:33.774Z,7.60
2019-03-28T01:56:09.393Z,7.70
2019-03-28T01:57:44.999Z,7.60
2019-03-28T01:59:21.218Z,7.60
2019-03-28T02:00:56.986Z,7.60
2019-03-28T02:02:33.205Z,7.60
2019-03-28T02:04:08.796Z,7.60
2019-03-28T02:05:44.416Z,7.60
2019-03-28T02:07:20.014Z,7.70
2019-03-28T02:08:55.641Z,7.60
2019-03-28T02:10:31.500Z,7.60
2019-03-28T02:12:07.160Z,7.50
2019-03-28T02:13:42.756Z,7.60
2019-03-28T02:15:18.684Z,7.60
2019-03-28T02:16:54.276Z,7.50
2019-03-28T02:18:29.898Z,7.50
2019-03-28T02:20:05.766Z,7.50
2019-03-28T02:21:41.662Z,7.50
2019-03-28T02:23:17.249Z,7.50
2019-03-28T02:24:52.979Z,7.50
2019-03-28T02:26:29.163Z,7.50
2019-03-28T02:28:05.133Z,7.50
2019-03-28T02:29:40.730Z,7.50
2019-03-28T02:31:16.914Z,7.50
2019-03-28T02:32:52.712Z,7.50
2019-03-28T02:34:28.437Z,7.50
2019-03-28T02:36:04.023Z,7.50
2019-03-28T02:37:39.703Z,7.50
2019-03-28T02:39:16.027Z,7.50
2019-03-28T02:40:51.902Z,7.50
2019-03-28T02:42:28.152Z,7.50
2019-03-28T02:44:03.843Z,7.60
2019-03-28T02:45:39.453Z,7.50
2019-03-28T02:47:15.078Z,7.50
2019-03-28T02:48:51.163Z,7.60
2019-03-28T02:50:26.760Z,7.60
2019-03-28T02:52:02.426Z,7.60
2019-03-28T02:53:38.037Z,7.60
2019-03-28T02:55:13.736Z,7.60
2019-03-28T02:56:49.352Z,7.60
2019-03-28T02:58:24.978Z,7.60
2019-03-28T03:00:00.569Z,7.60
2019-03-28T03:01:36.165Z,7.50
2019-03-28T03:03:12.176Z,7.50
2019-03-28T03:04:47.776Z,7.50
2019-03-28T03:06:23.520Z,7.50
2019-03-28T03:07:59.152Z,7.50
2019-03-28T03:09:34.773Z,7.50
2019-03-28T03:11:10.472Z,7.50
2019-03-28T03:12:46.612Z,7.50
2019-03-28T03:14:22.199Z,7.50
2019-03-28T03:15:57.840Z,7.50
2019-03-28T03:17:33.442Z,7.50
2019-03-28T03:19:09.037Z,7.50
2019-03-28T03:20:44.935Z,7.60
2019-03-28T03:22:20.782Z,7.50
2019-03-28T03:23:56.380Z,7.50
2019-03-28T03:25:32.202Z,7.50
2019-03-28T03:27:08.340Z,7.40
2019-03-28T03:28:43.936Z,7.50
2019-03-28T03:30:19.870Z,7.50
2019-03-28T03:31:55.977Z,7.50
2019-03-28T03:33:31.595Z,7.50
2019-03-28T03:35:08.081Z,7.60
2019-03-28T03:36:43.945Z,7.50
2019-03-28T03:38:19.524Z,7.50
2019-03-28T03:39:55.154Z,7.40
2019-03-28T03:41:31.025Z,7.40
2019-03-28T03:43:06.859Z,7.40
2019-03-28T03:44:42.714Z,7.40
2019-03-28T03:46:18.405Z,7.40
2019-03-28T03:47:53.999Z,7.40
2019-03-28T03:49:30.679Z,7.30
2019-03-28T03:51:06.581Z,7.30
2019-03-28T03:52:42.525Z,7.40
2019-03-28T03:54:18.381Z,7.30
2019-03-28T03:55:54.066Z,7.40
2019-03-28T03:57:29.663Z,7.40
2019-03-28T03:59:05.418Z,7.40
2019-03-28T04:00:41.168Z,7.40
2019-03-28T04:02:16.769Z,7.40
2019-03-28T04:03:52.396Z,7.40
2019-03-28T04:05:27.992Z,7.40
2019-03-28T04:07:03.587Z,7.40
2019-03-28T04:08:39.436Z,7.40
2019-03-28T04:10:15.652Z,7.40
2019-03-28T04:11:51.741Z,7.40
2019-03-28T04:13:27.342Z,7.50
2019-03-28T04:15:03.205Z,7.40
2019-03-28T04:16:39.361Z,7.40
2019-03-28T04:18:15.214Z,7.50
2019-03-28T04:19:51.344Z,7.50
2019-03-28T04:21:26.937Z,7.50
2019-03-28T04:23:03.849Z,7.50
2019-03-28T04:24:39.877Z,7.40
2019-03-28T04:26:15.478Z,7.50
2019-03-28T04:27:51.347Z,7.50
2019-03-28T04:29:26.984Z,7.50
2019-03-28T04:31:02.696Z,7.50
2019-03-28T04:32:38.515Z,7.40
2019-03-28T04:34:14.144Z,7.50
2019-03-28T04:35:49.748Z,7.60
2019-03-28T04:37:25.619Z,7.60
2019-03-28T04:39:01.213Z,7.50
2019-03-28T04:40:36.889Z,7.50
2019-03-28T04:42:12.498Z,7.50
2019-03-28T04:43:48.108Z,7.50
2019-03-28T04:45:23.697Z,7.40
2019-03-28T04:46:59.534Z,7.50
2019-03-28T04:48:35.140Z,7.50
2019-03-28T04:50:11.739Z,7.50
2019-03-28T04:51:47.329Z,7.50
2019-03-28T04:53:22.931Z,7.50
2019-03-28T04:54:58.530Z,7.40
2019-03-28T04:56:34.154Z,7.40
2019-03-28T04:58:09.862Z,7.40
2019-03-28T04:59:45.991Z,7.50
2019-03-28T05:01:21.573Z,7.50
2019-03-28T05:02:57.673Z,7.40
2019-03-28T05:04:33.484Z,7.40
2019-03-28T05:06:09.134Z,7.40
2019-03-28T05:07:45.235Z,7.40
2019-03-28T05:09:21.097Z,7.40
2019-03-28T05:10:57.189Z,7.50
2019-03-28T05:12:32.894Z,7.40
2019-03-28T05:14:08.511Z,7.50
2019-03-28T05:15:44.366Z,7.40
2019-03-28T05:17:19.977Z,7.50
2019-03-28T05:18:55.795Z,7.50
2019-03-28T05:20:31.708Z,7.60
2019-03-28T05:22:07.584Z,7.60
2019-03-28T05:23:43.444Z,7.50
2019-03-28T05:25:19.328Z,7.60
2019-03-28T05:26:54.945Z,7.60
2019-03-28T05:28:30.717Z,7.60
2019-03-28T05:30:08.178Z,7.60
2019-03-28T05:31:44.175Z,7.60
2019-03-28T05:33:19.790Z,7.60
2019-03-28T05:34:55.709Z,7.70
2019-03-28T05:36:31.301Z,7.60
2019-03-28T05:38:06.924Z,7.70
2019-03-28T05:39:42.888Z,7.70
2019-03-28T05:41:18.879Z,7.70
2019-03-28T05:42:54.707Z,7.70
2019-03-28T05:44:30.321Z,7.80
2019-03-28T05:46:05.910Z,7.80
2019-03-28T05:47:41.570Z,7.70
2019-03-28T08:48:47.968Z,7.80
2019-03-28T08:50:23.568Z,9.90
2019-03-28T08:51:59.271Z,9.90
2019-03-28T08:53:34.892Z,9.90
2019-03-28T08:55:10.793Z,10.00
2019-03-28T08:56:46.906Z,10.10
2019-03-28T08:58:22.528Z,10.00
2019-03-28T08:59:58.168Z,10.00
2019-03-28T09:01:34.074Z,10.00
2019-03-28T09:03:09.704Z,9.90
2019-03-28T09:04:45.594Z,10.00
2019-03-28T09:06:21.217Z,10.00
2019-03-28T09:09:32.305Z,10.10
2019-03-28T12:47:21.388Z,10.20
2019-03-28T12:52:07.065Z,11.50
2019-03-28T12:53:42.990Z,11.30
2019-03-28T12:55:18.590Z,11.40
2019-03-28T12:56:54.205Z,11.30
2019-03-28T13:28:38.639Z,11.20
2019-03-28T13:30:17.539Z,10.50
2019-03-28T13:31:53.546Z,10.50
2019-03-28T13:33:29.232Z,10.40
2019-03-28T13:35:05.758Z,10.40
2019-03-28T13:36:41.359Z,10.40
2019-03-28T13:38:17.302Z,10.40
2019-03-28T13:39:53.220Z,10.40
2019-03-28T13:41:29.114Z,10.30
2019-03-28T13:43:05.012Z,10.30
2019-03-28T13:44:40.696Z,10.30
2019-03-28T13:46:16.856Z,10.30
2019-03-28T13:47:54.405Z,10.40
2019-03-28T13:49:30.203Z,10.40
2019-03-28T13:51:06.002Z,10.40
2019-03-28T13:52:41.979Z,10.40
2019-03-28T13:54:17.619Z,10.40
2019-03-28T13:55:53.224Z,10.50
2019-03-28T13:57:28.839Z,10.50
2019-03-28T13:59:05.705Z,10.50
2019-03-28T14:00:41.522Z,10.40
2019-03-28T14:02:17.440Z,10.40
2019-03-28T14:03:53.095Z,10.30
2019-03-28T14:05:29.018Z,10.30
2019-03-28T14:07:04.661Z,10.30
2019-03-28T14:08:40.558Z,10.30
2019-03-28T14:10:16.535Z,10.30
2019-03-28T14:11:52.443Z,10.30
2019-03-28T14:13:28.363Z,10.30
2019-03-28T14:15:05.495Z,10.30
2019-03-28T14:16:41.126Z,10.30
2019-03-28T14:18:17.130Z,10.30
2019-03-28T14:19:53.099Z,10.40
2019-03-28T14:21:28.718Z,10.40
2019-03-28T14:23:04.346Z,10.50
2019-03-28T14:24:40.308Z,10.40
2019-03-28T14:26:15.947Z,10.40
2019-03-28T14:27:51.578Z,10.40
2019-03-28T14:29:29.718Z,10.30
2019-03-28T14:31:05.416Z,10.20
2019-03-28T14:32:52.679Z,10.20
2019-03-28T14:34:18.412Z,10.20
2019-03-28T14:35:54.265Z,10.10
2019-03-28T14:37:30.160Z,10.10
2019-03-28T14:39:08.468Z,10.20
2019-03-28T14:40:44.313Z,10.20
2019-03-28T14:42:20.288Z,10.20
2019-03-28T14:43:55.920Z,10.20
2019-03-28T14:45:31.531Z,10.20
2019-03-28T14:47:07.140Z,10.30
2019-03-28T14:48:43.031Z,10.40
2019-03-28T14:50:40.079Z,10.50
2019-03-28T14:52:15.799Z,10.60
2019-03-28T14:53:51.723Z,10.60
2019-03-28T14:55:27.421Z,10.70
2019-03-28T14:57:03.994Z,10.60
2019-03-28T14:58:42.268Z,10.60
2019-03-28T15:00:42.241Z,10.60
2019-03-28T15:02:17.956Z,10.60
2019-03-28T15:03:53.667Z,10.50
2019-03-28T15:05:29.301Z,10.50
2019-03-28T15:07:07.373Z,10.40
2019-03-28T15:08:43.495Z,10.30
2019-03-28T15:10:19.808Z,10.30
2019-03-28T15:11:55.429Z,10.20
2019-03-28T15:13:31.356Z,10.20
2019-03-28T15:15:07.305Z,10.20
2019-03-28T15:16:43.786Z,10.20
2019-03-28T15:18:20.158Z,10.20
2019-03-28T15:19:56.076Z,10.20
2019-03-28T15:21:31.718Z,10.20
2019-03-28T15:23:07.356Z,10.20
2019-03-28T15:24:43.010Z,10.30
2019-03-28T15:26:18.730Z,10.30
2019-03-28T15:27:54.629Z,10.40
2019-03-28T15:29:30.507Z,10.30
2019-03-28T15:31:06.618Z,10.30
2019-03-28T15:32:42.341Z,10.20
2019-03-28T15:34:17.967Z,10.20
2019-03-28T15:35:53.598Z,10.20
2019-03-28T15:37:29.590Z,10.30
2019-03-28T15:39:07.691Z,10.30
2019-03-28T15:40:43.313Z,10.40
2019-03-28T15:42:19.284Z,10.40
2019-03-28T15:43:55.231Z,10.50
2019-03-28T15:45:30.896Z,10.50
2019-03-28T15:47:06.522Z,10.50
2019-03-28T15:48:42.179Z,10.50
2019-03-28T15:50:17.973Z,10.40
2019-03-28T15:51:53.608Z,10.30
2019-03-28T15:53:29.227Z,10.30
2019-03-28T15:55:05.271Z,10.20
2019-03-28T15:56:41.265Z,10.30
2019-03-28T15:58:23.157Z,10.30
2019-03-28T15:59:54.830Z,10.30
2019-03-28T16:01:30.477Z,10.30
2019-03-28T16:03:06.169Z,10.20
2019-03-28T16:04:41.795Z,10.10
2019-03-28T16:06:17.434Z,10.10
2019-03-28T16:07:53.361Z,10.00
2019-03-28T16:09:28.983Z,10.00
2019-03-28T16:11:04.767Z,10.00
